Briefing drone pour Saint-egreve

Rechercher une autre localisation

Conditions de vol :


Nous sommes le : Samedi 02 juillet 2022
Il est 22:16 UTC (00:16 LT)

Lever de soleil : 03:28 UTC (05:28 LT)
Coucher de soleil : 19:54 UTC (21:54 LT)

Météo

L'essentiel des conditions de vol

VIGILANCE MÉTÉO FRANCE - Isère (38)
Pas de vigilances particulieres
CARTE TEMSI
CARTES DES FRONTS
METAR de LFLS
LFLS 012200Z AUTO 02003KT 280V080 CAVOK 17/09 Q1022

Date d'émission: 01/07/2022
Heure d'émission: 22:00 UTC
Vent: 020° (variable du 280° au 080°) pour 3 KT (6 km/h)
Visibilité horizontale: > 10 km
Plafond : Plafond et visibilité OK (CAVOK)
Température: 17 °C
Point de rosée: 9 °C
Humidité: 59%
Pression (QNH): 1022 hPa
TAF de LFLS
LFLS 011908Z 0119/0215 CNL

Conditions prévues :

Heure d'émission : Bulletin éffectué le 01 à 19:00 UTC
Prévision : Valide du 01 a 19:00 UTC au 02 a 15:00 UTC
Nuages : à 0ft (0 m)
WEBCAM POUR SAINT-EGREVE

Réglementation

Voler en sécurité

CARTES AERONAUTIQUE 1/500.000
CARTES VAC (LFLS)
SUP AIP




Chargement des AIP...
NOTAM (SAINT-EGREVE + Terrain à proximité / FIR )




Chargement des NOTAMS...
CONTACT PREFECTURE 38


Avertissement : Les données mises à disposition sont indicatives. Oxygène Drone ne pourra être tenu responsable de dégâts causés aux biens et aux personnes.